createdAt,value
2018-09-28T00:01:55.700Z,77.50
2018-09-28T00:04:24.288Z,77.40
2018-09-28T00:06:52.994Z,77.50
2018-09-28T00:09:21.669Z,77.60
2018-09-28T00:11:50.305Z,78.30
2018-09-28T00:14:18.965Z,76.90
2018-09-28T00:16:47.627Z,77.40
2018-09-28T00:19:16.201Z,77.30
2018-09-28T00:21:45.653Z,77.10
2018-09-28T00:24:14.260Z,77.30
2018-09-28T00:26:42.910Z,77.60
2018-09-28T00:29:11.590Z,77.30
2018-09-28T00:31:40.283Z,78.30
2018-09-28T00:34:08.862Z,78.50
2018-09-28T00:36:37.397Z,79.00
2018-09-28T00:39:07.895Z,79.20
2018-09-28T00:41:36.457Z,79.30
2018-09-28T00:44:04.990Z,79.10
2018-09-28T00:46:33.552Z,78.40
2018-09-28T00:49:02.310Z,78.60
2018-09-28T00:51:30.911Z,77.70
2018-09-28T00:53:59.498Z,78.10
2018-09-28T00:56:28.183Z,78.20
2018-09-28T00:58:56.690Z,78.30
2018-09-28T01:01:25.614Z,77.70
2018-09-28T01:03:54.249Z,78.70
2018-09-28T01:06:22.845Z,79.40
2018-09-28T01:08:51.362Z,78.90
2018-09-28T01:11:19.933Z,78.40
2018-09-28T01:13:48.542Z,78.70
2018-09-28T01:16:18.471Z,79.00
2018-09-28T01:18:47.082Z,78.70
2018-09-28T01:21:16.260Z,78.80
2018-09-28T01:23:44.943Z,78.60
2018-09-28T01:26:14.343Z,78.20
2018-09-28T01:28:42.924Z,78.70
2018-09-28T01:31:11.501Z,79.10
2018-09-28T01:33:40.086Z,79.60
2018-09-28T01:36:08.812Z,79.20
2018-09-28T01:38:37.337Z,79.30
2018-09-28T01:41:05.882Z,79.10
2018-09-28T01:43:34.541Z,78.60
2018-09-28T01:46:03.130Z,79.10
2018-09-28T01:48:31.705Z,78.90
2018-09-28T01:51:00.404Z,79.40
2018-09-28T01:53:29.041Z,79.70
2018-09-28T01:55:57.658Z,80.20
2018-09-28T01:58:26.376Z,80.20
2018-09-28T02:00:55.053Z,79.40
2018-09-28T02:03:23.719Z,79.60
2018-09-28T02:05:52.380Z,79.60
2018-09-28T02:08:20.994Z,79.60
2018-09-28T02:10:49.539Z,79.70
2018-09-28T02:13:18.131Z,80.80
2018-09-28T02:15:46.850Z,80.60
2018-09-28T02:18:15.410Z,80.70
2018-09-28T02:20:43.961Z,80.90
2018-09-28T02:23:12.557Z,80.50
2018-09-28T02:25:41.095Z,80.70
2018-09-28T02:28:09.656Z,80.00
2018-09-28T02:30:38.229Z,80.20
2018-09-28T02:33:06.960Z,80.60
2018-09-28T02:35:35.494Z,80.90
2018-09-28T02:38:04.181Z,80.90
2018-09-28T02:40:32.737Z,80.80
2018-09-28T02:43:01.357Z,80.90
2018-09-28T02:45:30.099Z,81.20
2018-09-28T02:47:58.829Z,81.30
2018-09-28T02:50:27.364Z,80.80
2018-09-28T02:52:57.360Z,80.70
2018-09-28T02:55:25.935Z,80.40
2018-09-28T02:57:54.470Z,80.50
2018-09-28T03:00:23.135Z,80.80
2018-09-28T03:02:51.816Z,80.70
2018-09-28T03:05:20.482Z,81.30
2018-09-28T03:07:49.094Z,81.30
2018-09-28T03:10:17.833Z,80.90
2018-09-28T03:12:46.468Z,80.90
2018-09-28T03:15:15.156Z,81.50
2018-09-28T03:17:43.850Z,81.40
2018-09-28T03:20:12.439Z,81.20
2018-09-28T03:22:41.052Z,81.30
2018-09-28T03:25:10.211Z,81.10
2018-09-28T03:27:38.736Z,80.90
2018-09-28T03:30:07.728Z,80.90
2018-09-28T03:32:36.345Z,80.70
2018-09-28T03:35:05.454Z,81.00
2018-09-28T03:37:34.300Z,80.70
2018-09-28T03:40:02.981Z,81.70
2018-09-28T03:42:31.618Z,81.70
2018-09-28T03:45:00.204Z,81.40
2018-09-28T03:47:29.031Z,81.70
2018-09-28T03:49:57.673Z,81.80
2018-09-28T03:52:26.338Z,81.60
2018-09-28T03:54:55.119Z,81.40
2018-09-28T03:57:23.717Z,81.00
2018-09-28T03:59:52.328Z,80.70
2018-09-28T04:02:21.173Z,80.90
2018-09-28T04:04:49.782Z,81.10
2018-09-28T04:07:18.559Z,81.20
2018-09-28T04:09:47.290Z,80.60
2018-09-28T04:12:15.965Z,80.40
2018-09-28T04:14:44.884Z,80.80
2018-09-28T04:17:13.678Z,81.30
2018-09-28T04:19:42.218Z,81.60
2018-09-28T04:22:10.821Z,81.60
2018-09-28T04:24:39.512Z,80.80
2018-09-28T04:27:08.520Z,80.60
2018-09-28T04:29:37.157Z,80.60
2018-09-28T04:32:05.893Z,80.90
2018-09-28T04:34:34.630Z,81.10
2018-09-28T04:37:03.413Z,81.10
2018-09-28T04:39:31.957Z,82.20
2018-09-28T04:42:01.305Z,82.50
2018-09-28T04:44:29.899Z,82.70
2018-09-28T04:46:58.498Z,83.60
2018-09-28T04:49:27.036Z,83.50
2018-09-28T04:51:55.785Z,82.70
2018-09-28T04:54:24.588Z,82.00
2018-09-28T04:56:53.341Z,81.70
2018-09-28T04:59:22.494Z,81.80
2018-09-28T05:01:52.055Z,81.90
2018-09-28T05:04:20.689Z,81.70
2018-09-28T05:06:49.247Z,82.00
2018-09-28T05:09:18.441Z,83.20
2018-09-28T05:11:47.010Z,83.20
2018-09-28T05:14:15.597Z,82.60
2018-09-28T05:16:44.317Z,83.00
2018-09-28T05:19:13.051Z,82.90
2018-09-28T05:21:41.938Z,82.90
2018-09-28T05:24:10.742Z,82.20
2018-09-28T05:26:39.487Z,82.30
2018-09-28T05:29:08.097Z,83.20
2018-09-28T05:31:36.917Z,83.60
2018-09-28T05:34:06.349Z,83.50
2018-09-28T05:36:35.043Z,83.60
2018-09-28T05:39:03.853Z,84.20
2018-09-28T05:41:32.528Z,84.10
2018-09-28T05:44:01.251Z,84.10
2018-09-28T05:46:29.862Z,84.20
2018-09-28T05:48:58.493Z,84.10
2018-09-28T05:51:27.138Z,84.30
2018-09-28T05:53:55.801Z,85.40
2018-09-28T05:56:24.622Z,85.80
2018-09-28T05:58:58.594Z,85.80
2018-09-28T06:01:32.432Z,86.10
2018-09-28T06:04:06.236Z,86.50
2018-09-28T06:06:34.844Z,86.70
2018-09-28T06:09:05.866Z,87.00
2018-09-28T06:11:34.598Z,87.60
2018-09-28T06:14:03.151Z,88.00
2018-09-28T06:16:31.893Z,88.20
2018-09-28T06:19:01.265Z,88.50
2018-09-28T06:21:30.665Z,88.60
2018-09-28T06:23:59.301Z,88.90
2018-09-28T06:26:27.933Z,89.10
2018-09-28T06:28:56.775Z,89.30
2018-09-28T06:31:25.553Z,89.60
2018-09-28T06:33:54.303Z,90.00
2018-09-28T06:36:23.557Z,90.10
2018-09-28T06:38:52.217Z,90.30
2018-09-28T06:41:20.913Z,90.30
2018-09-28T06:43:49.588Z,90.30
2018-09-28T06:46:18.395Z,90.30
2018-09-28T06:48:46.961Z,90.10
2018-09-28T06:51:15.611Z,79.80
2018-09-28T06:53:44.223Z,78.10
2018-09-28T06:56:12.829Z,77.30
2018-09-28T06:58:41.381Z,77.90
2018-09-28T07:01:09.893Z,78.10
2018-09-28T07:03:38.662Z,78.00
2018-09-28T07:06:07.760Z,77.80
2018-09-28T07:08:36.374Z,78.10
2018-09-28T07:11:05.300Z,77.40
2018-09-28T07:13:33.935Z,75.10
2018-09-28T07:16:02.662Z,72.20
2018-09-28T07:18:31.731Z,68.00
2018-09-28T07:21:00.393Z,66.60
2018-09-28T07:23:29.143Z,65.10
2018-09-28T07:25:57.988Z,61.80
2018-09-28T07:28:26.574Z,61.20
2018-09-28T07:30:55.138Z,55.80
2018-09-28T07:33:23.913Z,51.00
2018-09-28T07:35:52.764Z,47.50
2018-09-28T07:38:21.310Z,49.70
2018-09-28T07:40:50.016Z,53.20
2018-09-28T07:43:18.754Z,54.10
2018-09-28T07:45:47.406Z,46.90
2018-09-28T07:48:16.022Z,43.30
2018-09-28T07:50:44.621Z,47.20
2018-09-28T07:53:13.193Z,42.90
2018-09-28T07:55:42.026Z,43.80
2018-09-28T07:58:10.641Z,46.60
2018-09-28T08:00:39.347Z,42.60
2018-09-28T08:03:08.788Z,46.30
2018-09-28T08:05:37.446Z,41.90
2018-09-28T08:08:06.228Z,41.70
2018-09-28T08:10:34.771Z,42.10
2018-09-28T08:13:03.529Z,40.80
2018-09-28T08:15:32.141Z,37.40
2018-09-28T08:18:00.753Z,39.80
2018-09-28T08:20:29.337Z,39.60
2018-09-28T08:22:57.871Z,37.60
2018-09-28T08:25:26.793Z,38.60
2018-09-28T08:27:55.464Z,39.60
2018-09-28T08:30:24.126Z,39.60
2018-09-28T08:32:52.757Z,39.40
2018-09-28T08:35:21.353Z,38.80
2018-09-28T08:37:50.191Z,36.90
2018-09-28T08:40:19.007Z,39.20
2018-09-28T08:42:47.571Z,37.40
2018-09-28T08:45:16.132Z,38.80
2018-09-28T08:47:44.821Z,39.50
2018-09-28T08:50:13.438Z,36.20
2018-09-28T08:52:42.350Z,36.10
2018-09-28T08:55:11.058Z,37.10
2018-09-28T08:57:39.709Z,36.30
2018-09-28T09:00:08.392Z,34.90
2018-09-28T09:02:37.160Z,35.60
2018-09-28T09:05:05.721Z,35.30
2018-09-28T09:07:35.710Z,36.40
2018-09-28T09:10:04.385Z,36.90
2018-09-28T09:12:33.044Z,36.50
2018-09-28T09:15:01.647Z,35.90
2018-09-28T09:17:30.465Z,37.70
2018-09-28T09:19:59.106Z,35.10
2018-09-28T09:22:27.738Z,35.10
2018-09-28T09:24:56.521Z,37.50
2018-09-28T09:27:25.272Z,36.50
2018-09-28T09:29:54.080Z,36.50
2018-09-28T09:32:22.709Z,34.00
2018-09-28T09:34:51.270Z,35.40
2018-09-28T09:37:19.848Z,33.80
2018-09-28T09:39:48.425Z,35.80
2018-09-28T09:42:17.122Z,36.00
2018-09-28T09:44:45.851Z,35.90
2018-09-28T09:47:15.167Z,36.20
2018-09-28T09:49:44.319Z,35.00
2018-09-28T09:52:13.193Z,35.00
2018-09-28T09:54:42.106Z,35.70
2018-09-28T09:57:10.872Z,35.00
2018-09-28T09:59:39.425Z,34.70
2018-09-28T10:02:13.423Z,34.90
2018-09-28T10:04:42.107Z,35.50
2018-09-28T10:07:10.833Z,36.30
2018-09-28T10:09:39.506Z,35.20
2018-09-28T10:12:08.198Z,35.60
2018-09-28T10:14:36.820Z,34.70
2018-09-28T10:17:05.560Z,34.30
2018-09-28T10:19:34.379Z,35.60
2018-09-28T10:22:02.889Z,35.90
2018-09-28T10:24:31.568Z,36.40
2018-09-28T10:27:00.223Z,35.00
2018-09-28T10:29:29.000Z,35.40
2018-09-28T10:31:57.621Z,34.60
2018-09-28T10:34:26.818Z,34.70
2018-09-28T10:36:55.289Z,34.40
2018-09-28T10:39:23.979Z,33.80
2018-09-28T10:41:52.498Z,34.40
2018-09-28T10:44:21.178Z,35.10
2018-09-28T10:46:49.782Z,33.70
2018-09-28T10:49:18.430Z,33.50
2018-09-28T10:51:47.050Z,33.60
2018-09-28T10:54:15.671Z,33.80
2018-09-28T10:56:44.456Z,33.80
2018-09-28T10:59:13.186Z,33.90
2018-09-28T11:01:41.746Z,34.40
2018-09-28T11:04:10.670Z,34.50
2018-09-28T11:06:39.369Z,33.70
2018-09-28T11:09:09.900Z,34.70
2018-09-28T11:11:38.699Z,34.10
2018-09-28T11:14:07.891Z,33.90
2018-09-28T11:16:42.390Z,34.10
2018-09-28T11:21:53.639Z,33.60
2018-09-28T11:24:34.276Z,33.60
2018-09-28T11:27:15.422Z,34.20
2018-09-28T11:32:41.871Z,34.40
2018-09-28T11:35:10.442Z,34.80
2018-09-28T11:37:39.278Z,34.30
2018-09-28T11:40:07.987Z,33.70
2018-09-28T11:42:36.526Z,34.50
2018-09-28T11:45:05.295Z,34.70
2018-09-28T11:47:33.937Z,35.20
2018-09-28T11:50:03.300Z,34.70
2018-09-28T11:52:31.902Z,34.40
2018-09-28T11:55:00.742Z,34.50
2018-09-28T11:57:29.510Z,34.50
2018-09-28T11:59:58.263Z,34.50
2018-09-28T12:02:26.997Z,33.90
2018-09-28T12:04:55.622Z,34.40
2018-09-28T12:07:24.195Z,33.60
2018-09-28T12:09:52.825Z,33.00
2018-09-28T12:12:21.626Z,32.90
2018-09-28T12:14:50.278Z,32.90
2018-09-28T12:17:19.826Z,33.80
2018-09-28T12:19:48.401Z,31.60
2018-09-28T12:22:17.064Z,31.10
2018-09-28T12:24:45.715Z,31.20
2018-09-28T12:27:14.434Z,30.70
2018-09-28T12:29:43.400Z,32.40
2018-09-28T12:32:12.357Z,32.50
2018-09-28T12:34:41.030Z,32.70
2018-09-28T12:37:09.823Z,33.10
2018-09-28T12:39:38.514Z,33.50
2018-09-28T12:42:08.143Z,33.30
2018-09-28T12:44:37.179Z,33.00
2018-09-28T12:47:05.797Z,33.40
2018-09-28T12:49:34.726Z,33.90
2018-09-28T12:52:03.609Z,33.30
2018-09-28T12:54:32.179Z,32.90
2018-09-28T12:57:00.855Z,33.80
2018-09-28T12:59:29.941Z,32.70
2018-09-28T13:01:59.544Z,33.30
2018-09-28T13:04:28.114Z,33.70
2018-09-28T13:06:57.285Z,34.80
2018-09-28T13:09:26.009Z,32.60
2018-09-28T13:11:54.854Z,34.60
2018-09-28T13:14:23.576Z,34.00
2018-09-28T13:16:52.101Z,34.20
2018-09-28T13:19:20.822Z,33.40
2018-09-28T13:21:49.555Z,33.60
2018-09-28T13:24:18.392Z,33.10
2018-09-28T13:26:47.035Z,34.00
2018-09-28T13:29:15.923Z,34.70
2018-09-28T13:31:44.444Z,34.00
2018-09-28T13:34:13.081Z,33.20
2018-09-28T13:36:41.701Z,33.50
2018-09-28T13:39:10.394Z,32.10
2018-09-28T13:41:39.512Z,31.70
2018-09-28T13:44:08.092Z,31.40
2018-09-28T13:46:37.242Z,32.00
2018-09-28T13:49:05.950Z,32.10
2018-09-28T13:51:34.643Z,32.40
2018-09-28T13:54:03.261Z,33.00
2018-09-28T13:56:33.165Z,32.50
2018-09-28T13:59:01.857Z,32.10
2018-09-28T14:01:30.464Z,31.30
2018-09-28T14:03:59.271Z,31.40
2018-09-28T14:06:28.062Z,31.80
2018-09-28T14:08:56.612Z,30.70
2018-09-28T14:11:25.324Z,30.90
2018-09-28T14:13:54.052Z,30.60
2018-09-28T14:16:22.799Z,30.60
2018-09-28T14:18:51.552Z,30.90
2018-09-28T14:21:20.044Z,30.70
2018-09-28T14:23:48.703Z,30.80
2018-09-28T14:26:18.190Z,30.50
2018-09-28T14:28:46.872Z,30.50
2018-09-28T14:31:15.379Z,30.40
2018-09-28T14:33:44.014Z,30.20
2018-09-28T14:36:12.833Z,29.80
2018-09-28T14:38:41.606Z,29.60
2018-09-28T14:41:10.181Z,30.00
2018-09-28T14:43:38.738Z,30.00
2018-09-28T14:46:07.943Z,30.20
2018-09-28T14:48:36.847Z,29.80
2018-09-28T14:51:05.766Z,30.00
2018-09-28T14:53:34.487Z,29.60
2018-09-28T14:56:03.096Z,30.00
2018-09-28T14:58:31.719Z,29.90
2018-09-28T15:01:00.608Z,29.30
2018-09-28T15:03:29.158Z,29.10
2018-09-28T15:05:58.478Z,29.30
2018-09-28T15:08:27.927Z,29.00
2018-09-28T15:10:56.617Z,28.10
2018-09-28T15:13:25.396Z,27.80
2018-09-28T15:15:54.097Z,28.00
2018-09-28T15:18:22.962Z,28.20
2018-09-28T15:20:51.522Z,27.90
2018-09-28T15:23:20.722Z,27.50
2018-09-28T15:25:49.341Z,27.40
2018-09-28T15:28:18.104Z,27.70
2018-09-28T15:30:46.722Z,28.10
2018-09-28T15:33:15.406Z,27.80
2018-09-28T15:35:44.187Z,27.60
2018-09-28T15:38:12.774Z,27.30
2018-09-28T15:40:41.583Z,27.30
2018-09-28T15:43:10.873Z,27.40
2018-09-28T15:45:39.584Z,27.30
2018-09-28T15:48:08.382Z,26.90
2018-09-28T15:50:37.005Z,27.00
2018-09-28T15:53:05.846Z,26.80
2018-09-28T15:55:35.243Z,26.70
2018-09-28T15:58:11.185Z,26.40
2018-09-28T16:00:39.857Z,25.90
2018-09-28T16:03:08.534Z,26.30
2018-09-28T16:05:37.225Z,26.00
2018-09-28T16:08:05.853Z,26.00
2018-09-28T16:10:34.486Z,26.30
2018-09-28T16:13:03.122Z,25.70
2018-09-28T16:15:31.886Z,26.20
2018-09-28T16:18:00.587Z,26.00
2018-09-28T16:20:29.186Z,26.10
2018-09-28T16:22:57.873Z,26.20
2018-09-28T16:25:26.603Z,25.90
2018-09-28T16:27:55.569Z,26.00
2018-09-28T16:30:24.672Z,26.00
2018-09-28T16:32:53.550Z,26.10
2018-09-28T16:35:22.346Z,26.00
2018-09-28T16:37:51.577Z,26.10
2018-09-28T16:40:20.173Z,26.10
2018-09-28T16:42:48.831Z,26.10
2018-09-28T16:45:17.517Z,26.10
2018-09-28T16:47:46.321Z,26.50
2018-09-28T16:50:15.250Z,34.70
2018-09-28T16:52:43.976Z,34.90
2018-09-28T16:55:12.582Z,34.80
2018-09-28T16:57:41.159Z,34.20
2018-09-28T17:00:09.803Z,34.50
2018-09-28T17:02:38.775Z,34.70
2018-09-28T17:05:08.486Z,34.60
2018-09-28T17:07:37.261Z,34.80
2018-09-28T17:10:05.947Z,34.10
2018-09-28T17:12:34.540Z,25.50
2018-09-28T17:15:03.324Z,25.50
2018-09-28T17:17:32.026Z,25.70
2018-09-28T17:20:00.685Z,25.60
2018-09-28T17:22:29.416Z,25.70
2018-09-28T17:24:58.020Z,25.30
2018-09-28T17:27:26.837Z,25.60
2018-09-28T17:29:55.546Z,25.20
2018-09-28T17:32:24.146Z,25.20
2018-09-28T17:34:53.353Z,25.40
2018-09-28T17:37:22.121Z,25.40
2018-09-28T17:39:50.668Z,25.30
2018-09-28T17:42:19.406Z,25.50
2018-09-28T17:44:48.001Z,25.10
2018-09-28T17:47:16.763Z,25.40
2018-09-28T17:49:46.162Z,25.40
2018-09-28T17:52:15.060Z,25.40
2018-09-28T17:54:43.750Z,25.40
2018-09-28T17:57:12.318Z,25.70
2018-09-28T17:59:41.000Z,26.10
2018-09-28T18:02:09.953Z,26.40
2018-09-28T18:04:38.552Z,26.80
2018-09-28T18:07:07.149Z,27.00
2018-09-28T18:09:35.877Z,27.30
2018-09-28T18:12:04.719Z,27.40
2018-09-28T18:14:33.726Z,27.50
2018-09-28T18:17:02.373Z,27.40
2018-09-28T18:19:31.675Z,27.50
2018-09-28T18:22:00.411Z,27.30
2018-09-28T18:24:29.733Z,26.30
2018-09-28T18:26:58.296Z,25.80
2018-09-28T18:29:27.021Z,25.90
2018-09-28T18:31:55.657Z,25.90
2018-09-28T18:34:24.282Z,26.10
2018-09-28T18:36:53.000Z,26.00
2018-09-28T18:39:21.698Z,26.60
2018-09-28T18:41:50.437Z,26.60
2018-09-28T18:44:19.098Z,27.20
2018-09-28T18:46:47.814Z,27.10
2018-09-28T18:49:16.445Z,27.30
2018-09-28T18:51:45.172Z,27.70
2018-09-28T18:54:13.758Z,27.60
2018-09-28T18:56:42.456Z,27.70
2018-09-28T18:59:11.062Z,27.90
2018-09-28T19:01:39.785Z,28.00
2018-09-28T19:04:09.315Z,28.30
2018-09-28T19:06:38.091Z,28.40
2018-09-28T19:09:09.210Z,28.50
2018-09-28T19:11:37.992Z,28.40
2018-09-28T19:14:06.732Z,28.70
2018-09-28T19:16:35.510Z,28.90
2018-09-28T19:19:04.272Z,28.70
2018-09-28T19:21:33.052Z,29.50
2018-09-28T19:24:02.485Z,29.40
2018-09-28T19:26:31.193Z,29.80
2018-09-28T19:28:59.812Z,29.90
2018-09-28T19:31:29.082Z,30.50
2018-09-28T19:33:57.783Z,30.60
2018-09-28T19:36:26.496Z,30.60
2018-09-28T19:38:55.529Z,30.90
2018-09-28T19:41:24.330Z,30.90
2018-09-28T19:43:53.410Z,31.50
2018-09-28T19:46:22.069Z,31.10
2018-09-28T19:48:50.738Z,31.20
2018-09-28T19:51:19.674Z,31.50
2018-09-28T19:53:48.283Z,31.60
2018-09-28T19:56:16.880Z,31.80
2018-09-28T19:58:46.430Z,32.00
2018-09-28T20:01:15.753Z,32.20
2018-09-28T20:03:44.432Z,32.20
2018-09-28T20:06:13.640Z,32.10
2018-09-28T20:08:43.765Z,31.80
2018-09-28T20:11:12.424Z,32.00
2018-09-28T20:13:41.021Z,32.00
2018-09-28T20:16:09.668Z,32.20
2018-09-28T20:18:38.386Z,32.60
2018-09-28T20:21:07.479Z,32.70
2018-09-28T20:23:36.332Z,33.20
2018-09-28T20:26:05.120Z,33.10
2018-09-28T20:28:33.698Z,33.00
2018-09-28T20:31:03.057Z,33.30
2018-09-28T20:33:31.873Z,33.40
2018-09-28T20:36:00.591Z,34.20
2018-09-28T20:38:29.253Z,34.50
2018-09-28T20:40:57.977Z,34.50
2018-09-28T20:43:26.691Z,34.10
2018-09-28T20:45:55.503Z,34.30
2018-09-28T20:48:24.200Z,34.10
2018-09-28T20:50:52.911Z,34.90
2018-09-28T20:53:21.529Z,34.90
2018-09-28T20:55:50.366Z,35.00
2018-09-28T20:58:19.005Z,35.00
2018-09-28T21:00:47.648Z,35.40
2018-09-28T21:03:16.263Z,35.40
2018-09-28T21:05:45.337Z,36.60
2018-09-28T21:08:14.502Z,36.20
2018-09-28T21:10:43.145Z,36.80
2018-09-28T21:13:11.856Z,36.50
2018-09-28T21:15:40.524Z,36.20
2018-09-28T21:18:09.233Z,36.60
2018-09-28T21:20:37.830Z,37.20
2018-09-28T21:23:06.393Z,36.90
2018-09-28T21:25:35.114Z,37.30
2018-09-28T21:28:03.736Z,37.30
2018-09-28T21:30:32.332Z,37.90
2018-09-28T21:33:01.174Z,38.90
2018-09-28T21:35:29.959Z,38.70
2018-09-28T21:37:58.671Z,39.90
2018-09-28T21:43:03.439Z,43.30
2018-09-28T21:45:32.258Z,45.30
2018-09-28T21:48:00.833Z,47.20
2018-09-28T21:50:30.101Z,50.70
2018-09-28T21:52:58.699Z,45.70
2018-09-28T21:55:27.301Z,49.10
2018-09-28T21:57:56.017Z,43.80
2018-09-28T22:00:25.489Z,43.70
2018-09-28T22:02:54.359Z,50.40
2018-09-28T22:05:23.032Z,49.20
2018-09-28T22:07:51.719Z,50.90
2018-09-28T22:10:20.421Z,53.10
2018-09-28T22:12:49.104Z,58.50
2018-09-28T22:15:17.720Z,51.50
2018-09-28T22:17:46.380Z,59.90
2018-09-28T22:20:14.976Z,42.00
2018-09-28T22:22:43.572Z,47.30
2018-09-28T22:25:12.330Z,45.00
2018-09-28T22:27:40.882Z,47.00
2018-09-28T22:30:09.656Z,43.80
2018-09-28T22:32:38.565Z,46.70
2018-09-28T22:35:07.203Z,56.20
2018-09-28T22:37:35.991Z,46.30
2018-09-28T22:40:04.769Z,44.00
2018-09-28T22:42:33.442Z,50.20
2018-09-28T22:45:02.218Z,50.60
2018-09-28T22:47:30.899Z,54.50
2018-09-28T22:49:59.514Z,57.60
2018-09-28T22:52:28.154Z,60.90
2018-09-28T22:54:56.801Z,53.10
2018-09-28T22:57:25.473Z,48.70
2018-09-28T22:59:54.611Z,58.20
2018-09-28T23:02:23.300Z,61.00
2018-09-28T23:04:51.932Z,60.30
2018-09-28T23:07:20.623Z,63.10
2018-09-28T23:09:50.055Z,62.90
2018-09-28T23:12:18.733Z,60.80
2018-09-28T23:14:47.346Z,55.80
2018-09-28T23:17:15.909Z,47.30
2018-09-28T23:19:44.436Z,48.20
2018-09-28T23:22:13.021Z,49.10
2018-09-28T23:24:41.580Z,52.00
2018-09-28T23:27:10.226Z,59.10
2018-09-28T23:29:38.800Z,59.50
2018-09-28T23:32:07.733Z,60.50
2018-09-28T23:34:36.430Z,60.30
2018-09-28T23:37:05.166Z,61.00
2018-09-28T23:39:33.710Z,62.20
2018-09-28T23:42:02.289Z,58.60
2018-09-28T23:44:30.995Z,56.90
2018-09-28T23:46:59.685Z,55.10
2018-09-28T23:49:28.330Z,57.80
2018-09-28T23:51:57.012Z,59.50
2018-09-28T23:54:25.574Z,54.90
2018-09-28T23:56:54.139Z,53.00
2018-09-28T23:59:22.873Z,54.30
